Time;durP1;ratioP1;P1;durP2;ratioP2;P2;SDS_P1;SDS_P2;PMS_P1;PMS_P2;Temp;Humidity;BMP_temperature;BMP_pressure;BME280_temperature;BME280_humidity;BME280_pressure;Samples;Min_cycle;Max_cycle;Signal;HPM_P1;HPM_P2
2022/03/07 00:02:06;;;;;;;4.93;2.00;;;12.40;85.00;;;;;;5025380;28;20041;-61
2022/03/07 00:04:32;;;;;;;4.97;2.28;;;12.30;84.80;;;;;;5030875;28;20425;-62
2022/03/07 00:06:58;;;;;;;3.40;1.63;;;12.30;85.00;;;;;;5033428;28;20044;-62
2022/03/07 00:09:24;;;;;;;4.82;1.95;;;;;;;;;;5032885;28;20037;-61
2022/03/07 00:11:50;;;;;;;5.57;2.17;;;12.30;84.70;;;;;;5032731;28;20060;-65
2022/03/07 00:14:15;;;;;;;5.13;2.00;;;12.30;84.60;;;;;;5029317;28;20042;-65
2022/03/07 00:16:41;;;;;;;4.95;2.15;;;12.40;84.70;;;;;;5027822;28;20069;-64
2022/03/07 00:19:07;;;;;;;6.72;2.75;;;12.40;82.30;;;;;;5029192;28;20050;-65
2022/03/07 00:21:34;;;;;;;3.80;1.85;;;12.40;84.60;;;;;;5033218;28;20042;-65
2022/03/07 00:24:00;;;;;;;3.85;1.70;;;12.40;82.20;;;;;;5033334;28;20053;-65
2022/03/07 00:26:26;;;;;;;4.38;1.80;;;;;;;;;;5032630;28;20372;-65
2022/03/07 00:28:52;;;;;;;3.80;1.88;;;12.40;84.60;;;;;;5032531;28;20620;-63
2022/03/07 00:31:19;;;;;;;5.93;2.00;;;12.40;82.10;;;;;;5033182;28;20101;-60
2022/03/07 00:33:45;;;;;;;3.42;1.70;;;12.20;84.40;;;;;;5032935;28;20046;-60
2022/03/07 00:36:10;;;;;;;4.63;1.77;;;12.30;81.90;;;;;;5019890;28;20049;-61
2022/03/07 00:38:36;;;;;;;3.88;2.00;;;12.40;84.40;;;;;;5033010;28;20120;-61
2022/03/07 00:41:02;;;;;;;4.53;1.95;;;12.50;84.50;;;;;;5031894;28;20072;-61
2022/03/07 00:43:28;;;;;;;3.63;1.90;;;12.00;81.60;;;;;;5032952;28;20041;-61
2022/03/07 00:45:54;;;;;;;4.28;2.00;;;;;;;;;;5032506;28;20084;-61
2022/03/07 00:48:20;;;;;;;5.45;2.10;;;12.30;84.00;;;;;;5031538;28;20049;-61
2022/03/07 00:50:47;;;;;;;4.60;1.70;;;12.30;82.40;;;;;;5032743;28;20056;-65
2022/03/07 00:53:13;;;;;;;3.50;1.45;;;12.20;84.00;;;;;;5020531;28;20083;-65
2022/03/07 00:55:39;;;;;;;3.45;1.80;;;;;;;;;;5048267;28;20046;-65
2022/03/07 00:58:05;;;;;;;4.20;1.63;;;12.20;84.10;;;;;;5035669;28;20077;-65
2022/03/07 01:00:32;;;;;;;3.35;1.67;;;12.50;84.10;;;;;;5035068;28;20092;-65
2022/03/07 01:02:58;;;;;;;4.97;1.50;;;12.20;83.90;;;;;;5019929;28;20060;-65
2022/03/07 01:05:24;;;;;;;3.22;1.65;;;12.30;84.00;;;;;;5026163;28;20042;-65
2022/03/07 01:07:50;;;;;;;3.45;1.60;;;12.10;81.40;;;;;;5036791;28;20041;-65
2022/03/07 01:10:16;;;;;;;3.95;1.80;;;12.30;84.00;;;;;;5034325;28;20054;-61
2022/03/07 01:12:41;;;;;;;3.28;1.67;;;12.00;83.80;;;;;;5036411;28;20187;-61
2022/03/07 01:15:08;;;;;;;3.28;1.60;;;12.20;81.40;;;;;;5036098;28;20033;-65
2022/03/07 01:17:34;;;;;;;3.85;1.70;;;;;;;;;;5035897;28;20114;-66
2022/03/07 01:20:00;;;;;;;4.82;1.75;;;12.20;83.80;;;;;;5035125;28;20053;-65
2022/03/07 01:22:26;;;;;;;3.45;1.55;;;12.20;83.90;;;;;;5035912;28;20041;-65
2022/03/07 01:24:51;;;;;;;2.63;1.60;;;12.10;83.90;;;;;;5036340;28;20049;-65
2022/03/07 01:27:17;;;;;;;3.47;1.80;;;12.00;83.70;;;;;;5033189;28;20145;-66
2022/03/07 01:29:43;;;;;;;6.05;2.03;;;12.10;83.70;;;;;;5035846;28;20507;-65
2022/03/07 01:32:09;;;;;;;5.13;1.85;;;12.10;81.30;;;;;;5035611;28;20063;-65
2022/03/07 01:34:34;;;;;;;4.05;1.85;;;12.10;83.80;;;;;;5033733;28;20081;-65
2022/03/07 01:37:00;;;;;;;4.85;2.28;;;12.10;83.80;;;;;;5034442;28;20148;-65
2022/03/07 01:39:26;;;;;;;5.05;2.05;;;11.90;83.60;;;;;;5035849;28;20037;-65
2022/03/07 01:41:52;;;;;;;4.35;1.88;;;;;;;;;;5034128;28;20057;-65
2022/03/07 01:44:23;;;;;;;4.40;1.80;;;12.10;80.40;;;;;;5017180;28;20042;-65
2022/03/07 01:46:49;;;;;;;4.43;1.98;;;;;;;;;;5031766;28;20049;-66
2022/03/07 01:49:15;;;;;;;5.15;1.92;;;;;;;;;;5035649;28;20045;-66
2022/03/07 01:51:42;;;;;;;4.60;2.00;;;;;;;;;;5035783;28;20053;-61
2022/03/07 01:54:10;;;;;;;3.85;1.92;;;;;;;;;;5035705;28;20042;-62
2022/03/07 01:56:36;;;;;;;3.78;1.88;;;12.10;83.60;;;;;;5035922;28;20103;-61
2022/03/07 01:59:05;;;;;;;3.25;1.83;;;12.00;81.50;;;;;;5035251;28;20045;-63
2022/03/07 02:01:31;;;;;;;4.20;1.90;;;12.20;83.60;;;;;;5040613;28;20492;-62
2022/03/07 02:03:57;;;;;;;5.35;1.88;;;12.20;83.50;;;;;;5035280;28;20120;-61
2022/03/07 02:06:23;;;;;;;4.63;1.95;;;12.00;83.40;;;;;;5035274;28;20046;-61
2022/03/07 02:08:50;;;;;;;4.50;1.83;;;12.00;83.50;;;;;;5046164;28;20045;-62
2022/03/07 02:11:16;;;;;;;4.53;1.80;;;12.20;83.60;;;;;;5022695;28;20041;-61
2022/03/07 02:13:42;;;;;;;5.15;1.90;;;11.90;80.80;;;;;;5035301;28;20466;-61
2022/03/07 02:16:09;;;;;;;4.07;2.13;;;12.00;83.20;;;;;;5032983;28;20057;-65
2022/03/07 02:18:34;;;;;;;6.10;1.80;;;11.70;83.20;;;;;;5043194;28;20045;-65
2022/03/07 02:21:19;;;;;;;4.60;2.20;;;;;;;;;;5035264;28;20099;-65
2022/03/07 02:35:12;;;;;;;3.50;1.60;;;12.00;80.90;;;;;;5023778;28;20079;-65
2022/03/07 02:37:38;;;;;;;3.20;1.67;;;11.70;83.20;;;;;;5033076;28;20045;-65
2022/03/07 02:40:04;;;;;;;4.70;2.28;;;11.90;81.00;;;;;;5034239;28;20129;-65
2022/03/07 02:42:30;;;;;;;4.30;2.00;;;;;;;;;;5034593;28;20091;-65
2022/03/07 02:44:56;;;;;;;4.10;1.83;;;12.00;83.20;;;;;;5034496;28;20080;-65
2022/03/07 02:47:23;;;;;;;4.10;2.08;;;12.00;80.80;;;;;;5034075;28;20085;-65
2022/03/07 02:49:50;;;;;;;6.75;2.58;;;11.90;83.20;;;;;;5034674;28;20451;-65
2022/03/07 02:52:15;;;;;;;3.97;1.85;;;11.90;83.10;;;;;;5015907;28;20442;-65
2022/03/07 02:54:41;;;;;;;4.10;2.00;;;11.80;83.20;;;;;;5026969;28;20046;-65
2022/03/07 02:57:07;;;;;;;3.80;1.80;;;12.10;83.20;;;;;;5023442;28;20451;-65
2022/03/07 02:59:33;;;;;;;3.70;2.00;;;11.80;83.00;;;;;;5028639;28;20115;-65
2022/03/07 03:01:59;;;;;;;3.50;1.90;;;12.00;83.20;;;;;;5014832;28;20480;-66
2022/03/07 03:04:25;;;;;;;4.18;1.90;;;;;;;;;;5026644;28;20108;-65
2022/03/07 03:06:51;;;;;;;4.57;1.90;;;;;;;;;;5032481;28;20047;-65
2022/03/07 03:09:17;;;;;;;5.80;2.00;;;11.80;83.00;;;;;;5033715;28;20034;-65
2022/03/07 03:11:43;;;;;;;3.92;1.60;;;12.00;83.00;;;;;;5034252;28;20037;-65
2022/03/07 03:14:09;;;;;;;4.88;2.28;;;11.80;83.00;;;;;;5014773;28;20139;-65
2022/03/07 03:16:34;;;;;;;4.47;2.00;;;11.80;82.90;;;;;;5023364;28;20483;-66
2022/03/07 03:19:00;;;;;;;3.88;1.70;;;11.90;83.30;;;;;;5021514;28;20049;-65
2022/03/07 03:21:27;;;;;;;6.35;1.95;;;;;;;;;;5027938;28;20113;-65
2022/03/07 03:23:53;;;;;;;4.68;1.75;;;;;;;;;;5019377;28;20072;-65
2022/03/07 03:26:19;;;;;;;4.20;1.70;;;;;;;;;;5032024;28;20053;-65
2022/03/07 03:28:45;;;;;;;4.90;1.98;;;11.80;83.10;;;;;;5032896;28;20483;-65
2022/03/07 03:31:11;;;;;;;4.32;1.77;;;12.00;83.20;;;;;;5018117;28;20048;-61
2022/03/07 03:33:38;;;;;;;4.70;1.92;;;;;;;;;;5026099;28;20112;-61
2022/03/07 03:36:05;;;;;;;5.18;2.30;;;12.10;80.60;;;;;;5033585;28;20128;-61
2022/03/07 03:38:30;;;;;;;4.90;2.03;;;11.70;83.00;;;;;;5033528;28;20037;-61
2022/03/07 03:40:56;;;;;;;4.00;2.00;;;;;;;;;;5029231;28;20052;-65
2022/03/07 03:43:22;;;;;;;5.32;1.90;;;11.90;81.70;;;;;;5019681;28;20041;-62
2022/03/07 03:45:48;;;;;;;5.22;1.90;;;11.60;83.10;;;;;;5031379;28;20052;-63
2022/03/07 03:48:14;;;;;;;4.30;2.00;;;11.90;80.50;;;;;;5033671;28;20037;-62
2022/03/07 03:50:40;;;;;;;3.28;1.63;;;;;;;;;;5017090;28;20133;-63
2022/03/07 03:53:06;;;;;;;4.25;1.80;;;;;;;;;;5014279;28;20049;-61
2022/03/07 03:55:32;;;;;;;4.97;2.10;;;;;;;;;;5039701;28;20042;-61
2022/03/07 03:57:58;;;;;;;5.07;1.98;;;11.70;82.70;;;;;;5033175;28;20077;-61
2022/03/07 04:00:24;;;;;;;5.13;2.05;;;11.70;82.70;;;;;;5033042;28;20065;-62
2022/03/07 04:02:50;;;;;;;4.20;1.77;;;11.90;82.90;;;;;;5034193;28;20053;-61
2022/03/07 04:05:15;;;;;;;4.88;1.70;;;11.90;82.90;;;;;;5015855;28;20045;-63
2022/03/07 04:07:41;;;;;;;7.82;2.20;;;11.60;80.20;;;;;;5015714;28;20045;-61
2022/03/07 04:10:08;;;;;;;5.68;1.92;;;12.00;83.00;;;;;;5032897;28;20376;-63
2022/03/07 04:12:33;;;;;;;3.88;2.17;;;11.70;82.70;;;;;;5032856;28;20048;-62
2022/03/07 04:14:59;;;;;;;3.58;1.83;;;11.70;82.50;;;;;;5031113;28;20045;-63
2022/03/07 04:17:25;;;;;;;3.72;1.80;;;11.80;82.70;;;;;;5031929;28;20104;-61
2022/03/07 04:19:51;;;;;;;3.90;2.08;;;11.70;82.60;;;;;;5031037;28;20057;-65
2022/03/07 04:22:16;;;;;;;4.60;1.80;;;11.70;82.60;;;;;;5032625;28;20483;-65
2022/03/07 04:24:43;;;;;;;4.72;2.00;;;;;;;;;;5028404;28;20081;-65
2022/03/07 04:27:09;;;;;;;4.38;2.10;;;;;;;;;;5016348;28;20056;-65
2022/03/07 04:29:35;;;;;;;4.25;2.00;;;;;;;;;;5033159;28;20092;-65
2022/03/07 04:32:00;;;;;;;4.40;1.90;;;11.30;82.20;;;;;;5032704;28;20042;-65
2022/03/07 04:34:26;;;;;;;3.75;1.83;;;11.70;82.50;;;;;;5019460;28;20058;-65
2022/03/07 04:36:52;;;;;;;3.25;1.73;;;11.60;82.60;;;;;;5036745;28;20099;-65
2022/03/07 04:39:18;;;;;;;4.70;1.98;;;11.50;82.30;;;;;;5037172;28;20049;-65
2022/03/07 04:41:44;;;;;;;4.10;1.70;;;11.20;82.20;;;;;;5036657;28;20103;-65
2022/03/07 04:44:11;;;;;;;3.78;1.90;;;11.80;82.40;;;;;;5036693;28;20485;-65
2022/03/07 04:46:37;;;;;;;3.92;1.70;;;11.90;82.60;;;;;;5037296;28;20394;-65
2022/03/07 04:49:03;;;;;;;4.13;1.80;;;11.80;82.50;;;;;;5036649;28;20041;-61
2022/03/07 04:51:29;;;;;;;5.68;1.88;;;;;;;;;;5046625;28;20052;-61
2022/03/07 04:53:55;;;;;;;3.35;1.88;;;;;;;;;;5036415;28;20085;-64
2022/03/07 04:56:21;;;;;;;3.53;1.80;;;11.60;82.40;;;;;;5035543;28;20128;-61
2022/03/07 04:58:47;;;;;;;3.78;1.88;;;11.40;82.30;;;;;;5036725;28;20128;-61
2022/03/07 05:01:14;;;;;;;4.78;2.22;;;11.60;82.40;;;;;;5036021;28;20123;-61
2022/03/07 05:03:40;;;;;;;3.78;1.85;;;11.40;81.30;;;;;;5036529;28;20049;-62
2022/03/07 05:06:08;;;;;;;4.05;1.90;;;;;;;;;;5034930;28;20038;-62
2022/03/07 05:08:34;;;;;;;3.53;1.90;;;11.60;82.40;;;;;;5036383;28;20057;-62
2022/03/07 05:11:01;;;;;;;3.25;1.73;;;11.80;82.40;;;;;;5035535;28;20108;-61
2022/03/07 05:13:26;;;;;;;4.38;1.92;;;11.50;82.20;;;;;;5035774;28;20047;-61
2022/03/07 05:15:52;;;;;;;2.95;1.73;;;11.60;79.80;;;;;;5035964;28;20045;-63
2022/03/07 05:18:18;;;;;;;3.10;1.70;;;11.40;82.10;;;;;;5035440;28;20072;-61
2022/03/07 05:20:44;;;;;;;3.35;1.70;;;;;;;;;;5036157;28;20045;-62
2022/03/07 05:23:10;;;;;;;3.50;2.00;;;;;;;;;;5034168;28;20049;-63
2022/03/07 05:25:36;;;;;;;3.33;1.83;;;11.60;82.30;;;;;;5034560;28;20048;-65
2022/03/07 05:28:01;;;;;;;4.00;2.00;;;11.30;79.60;;;;;;5036379;28;20495;-65
2022/03/07 05:30:27;;;;;;;3.63;2.10;;;;;;;;;;5035025;28;20040;-65
2022/03/07 05:32:53;;;;;;;3.80;1.88;;;11.50;82.20;;;;;;5037037;28;20053;-65
2022/03/07 05:35:21;;;;;;;3.58;1.85;;;11.50;82.20;;;;;;5035285;28;20061;-64
2022/03/07 05:37:46;;;;;;;3.83;2.20;;;11.50;82.20;;;;;;5035988;28;20085;-64
2022/03/07 05:40:12;;;;;;;3.75;1.88;;;11.70;82.30;;;;;;5042629;28;20065;-65
2022/03/07 05:42:39;;;;;;;4.47;1.90;;;;;;;;;;5015316;28;20055;-65
2022/03/07 05:45:06;;;;;;;3.22;1.90;;;11.40;82.20;;;;;;5017749;28;20042;-65
2022/03/07 05:47:32;;;;;;;2.65;1.75;;;11.40;82.20;;;;;;5050861;28;20045;-65
2022/03/07 05:49:57;;;;;;;3.83;2.00;;;11.60;82.40;;;;;;5034863;28;20037;-65
2022/03/07 05:52:23;;;;;;;4.10;2.22;;;11.70;82.30;;;;;;5035294;28;20100;-65
2022/03/07 05:54:49;;;;;;;5.63;2.30;;;11.40;82.40;;;;;;5035703;28;20051;-65
2022/03/07 05:57:15;;;;;;;4.05;2.17;;;11.40;82.30;;;;;;5033221;28;20041;-65
2022/03/07 05:59:40;;;;;;;4.38;2.25;;;11.40;82.10;;;;;;5028872;28;20052;-65
2022/03/07 06:02:06;;;;;;;4.57;2.63;;;;;;;;;;5035452;28;20037;-65
2022/03/07 06:04:32;;;;;;;5.10;2.80;;;11.10;82.10;;;;;;5034930;28;20037;-65
2022/03/07 06:06:58;;;;;;;6.03;2.72;;;11.50;82.20;;;;;;5031636;28;20406;-65
2022/03/07 06:20:32;;;;;;;4.43;2.60;;;11.40;82.40;;;;;;5020252;28;20125;-65
2022/03/07 06:22:59;;;;;;;5.60;3.00;;;;;;;;;;5033971;28;20467;-61
2022/03/07 06:25:25;;;;;;;6.55;2.72;;;11.50;80.70;;;;;;5034727;28;20052;-65
2022/03/07 06:27:51;;;;;;;5.55;2.22;;;11.40;82.00;;;;;;5035189;28;20124;-65
2022/03/07 06:30:16;;;;;;;5.20;2.72;;;11.50;81.90;;;;;;5034217;28;20029;-65
2022/03/07 06:32:42;;;;;;;5.40;2.80;;;11.40;82.10;;;;;;5020343;28;20053;-65
2022/03/07 06:35:08;;;;;;;5.35;2.70;;;11.60;79.50;;;;;;5014897;28;20053;-65
2022/03/07 06:37:34;;;;;;;5.82;2.65;;;11.60;81.90;;;;;;5015634;28;20103;-65
2022/03/07 06:40:00;;;;;;;6.85;2.75;;;11.70;79.30;;;;;;5023312;28;20120;-65
2022/03/07 06:42:25;;;;;;;5.18;2.55;;;11.80;81.80;;;;;;5034035;28;20038;-66
2022/03/07 06:44:51;;;;;;;5.43;2.47;;;11.70;81.70;;;;;;5034976;28;20056;-65
2022/03/07 06:47:17;;;;;;;5.20;2.75;;;12.00;81.70;;;;;;5034494;28;20038;-65
2022/03/07 06:49:45;;;;;;;5.32;2.58;;;11.80;81.40;;;;;;5024621;28;20107;-65
2022/03/07 06:52:11;;;;;;;6.20;2.80;;;12.10;78.90;;;;;;5029817;28;20046;-65
2022/03/07 06:54:37;;;;;;;7.00;2.80;;;12.10;81.30;;;;;;5032724;28;20045;-65
2022/03/07 06:57:03;;;;;;;5.43;2.50;;;12.10;81.30;;;;;;5035055;28;20535;-65
2022/03/07 06:59:29;;;;;;;5.63;2.55;;;12.30;81.30;;;;;;5034590;28;20064;-65
2022/03/07 07:01:55;;;;;;;5.47;2.80;;;12.50;79.40;;;;;;5033507;28;20041;-65
2022/03/07 07:04:21;;;;;;;5.70;2.60;;;12.50;80.90;;;;;;5034308;28;20142;-65
2022/03/07 07:06:46;;;;;;;6.57;2.55;;;12.60;80.80;;;;;;5023613;28;20615;-65
2022/03/07 07:09:12;;;;;;;5.43;2.50;;;12.70;80.70;;;;;;5032035;28;20042;-66
2022/03/07 07:11:38;;;;;;;5.68;2.78;;;12.80;78.00;;;;;;5034458;28;20049;-63
2022/03/07 07:14:04;;;;;;;4.65;2.38;;;12.90;80.60;;;;;;5033996;28;20053;-62
2022/03/07 07:16:29;;;;;;;4.80;2.72;;;12.80;79.40;;;;;;5033106;28;20112;-65
2022/03/07 07:18:55;;;;;;;5.20;2.60;;;12.90;80.20;;;;;;5033872;28;20041;-65
2022/03/07 07:21:21;;;;;;;4.75;2.47;;;13.30;80.20;;;;;;5033648;28;20502;-65
2022/03/07 07:23:47;;;;;;;5.50;2.53;;;13.40;80.20;;;;;;5018890;28;20045;-65
2022/03/07 07:26:13;;;;;;;6.22;2.47;;;;;;;;;;5030875;28;20038;-65
2022/03/07 07:28:39;;;;;;;4.60;2.60;;;13.60;80.10;;;;;;5033433;28;20104;-65
2022/03/07 07:31:05;;;;;;;6.53;2.47;;;13.30;79.70;;;;;;5033410;28;20395;-65
2022/03/07 07:33:31;;;;;;;5.45;2.17;;;13.80;79.90;;;;;;5033310;28;20065;-65
2022/03/07 07:35:57;;;;;;;4.38;2.17;;;13.60;76.90;;;;;;5033133;28;20041;-65
2022/03/07 07:38:22;;;;;;;4.82;2.22;;;13.80;79.60;;;;;;5049180;28;20095;-66
2022/03/07 07:40:49;;;;;;;4.78;2.13;;;13.80;79.40;;;;;;5033635;28;20038;-66
2022/03/07 07:43:15;;;;;;;4.15;1.90;;;;;;;;;;5014247;28;20096;-65
2022/03/07 07:45:41;;;;;;;3.85;2.08;;;14.20;79.30;;;;;;5027158;28;20139;-65
2022/03/07 07:48:07;;;;;;;6.20;2.10;;;;;;;;;;5033122;28;20084;-65
2022/03/07 07:50:33;;;;;;;3.97;2.08;;;14.40;79.40;;;;;;5034091;28;20501;-66
2022/03/07 07:52:59;;;;;;;4.82;2.15;;;14.10;79.20;;;;;;5033941;28;20088;-66
2022/03/07 07:55:25;;;;;;;4.18;2.05;;;14.50;79.20;;;;;;5048475;28;20057;-65
2022/03/07 07:57:50;;;;;;;3.60;2.13;;;14.30;79.10;;;;;;5027051;28;20052;-64
2022/03/07 08:00:19;;;;;;;4.20;1.73;;;14.70;77.50;;;;;;5032872;28;20052;-65
2022/03/07 08:02:48;;;;;;;4.75;1.80;;;14.80;79.10;;;;;;5030817;28;20045;-66
2022/03/07 08:05:14;;;;;;;3.85;1.83;;;14.80;79.10;;;;;;5033852;28;20044;-65
2022/03/07 08:07:41;;;;;;;3.40;1.50;;;;;;;;;;5025894;28;20120;-66
2022/03/07 08:10:08;;;;;;;3.38;1.67;;;15.20;79.10;;;;;;5014103;28;20045;-66
2022/03/07 08:12:34;;;;;;;3.60;1.63;;;15.20;76.40;;;;;;5026406;28;20383;-66
2022/03/07 08:14:59;;;;;;;3.28;1.55;;;15.20;78.90;;;;;;5016983;28;20041;-65
2022/03/07 08:17:25;;;;;;;4.30;1.85;;;15.10;78.80;;;;;;5018116;28;20175;-65
2022/03/07 08:19:51;;;;;;;4.50;1.63;;;15.40;79.00;;;;;;5031586;28;20041;-60
2022/03/07 08:22:17;;;;;;;4.03;1.70;;;15.40;78.80;;;;;;5030827;28;20052;-65
2022/03/07 08:24:43;;;;;;;4.72;1.90;;;15.40;78.70;;;;;;5033056;28;20502;-65
2022/03/07 08:27:08;;;;;;;3.03;1.50;;;15.20;78.50;;;;;;5032517;28;20487;-65
2022/03/07 08:29:34;;;;;;;4.60;2.00;;;15.60;78.60;;;;;;5029559;28;20037;-65
2022/03/07 08:32:00;;;;;;;3.42;1.50;;;15.30;78.40;;;;;;5023285;28;20049;-65
2022/03/07 08:34:26;;;;;;;3.58;1.45;;;15.60;78.50;;;;;;5032129;28;20119;-65
2022/03/07 08:36:52;;;;;;;3.60;1.50;;;15.60;78.50;;;;;;5032448;28;20102;-65
2022/03/07 08:39:18;;;;;;;3.72;1.67;;;15.50;78.20;;;;;;5030466;28;20038;-60
2022/03/07 08:41:43;;;;;;;3.53;1.50;;;15.60;78.30;;;;;;5033001;28;20049;-61
2022/03/07 08:44:09;;;;;;;5.40;1.33;;;;;;;;;;5032702;28;20042;-63
2022/03/07 08:46:35;;;;;;;3.30;1.45;;;15.70;78.30;;;;;;5031694;28;20037;-60
2022/03/07 08:49:01;;;;;;;2.67;1.20;;;16.00;75.80;;;;;;5014832;28;20053;-65
2022/03/07 08:51:27;;;;;;;3.70;1.48;;;16.10;78.40;;;;;;5013654;28;20081;-65
2022/03/07 08:53:52;;;;;;;3.92;1.33;;;16.10;75.90;;;;;;5019851;28;20063;-65
2022/03/07 08:56:18;;;;;;;4.13;1.75;;;16.10;78.40;;;;;;5033051;28;20048;-65
2022/03/07 08:58:44;;;;;;;3.17;1.35;;;16.20;78.50;;;;;;5032399;28;20052;-61
2022/03/07 09:01:10;;;;;;;3.65;1.50;;;15.90;78.30;;;;;;5030444;28;20390;-61
2022/03/07 09:03:35;;;;;;;6.10;1.63;;;16.20;78.60;;;;;;5030503;28;20096;-60
2022/03/07 09:06:01;;;;;;;4.20;1.52;;;16.30;78.60;;;;;;5015715;28;20184;-61
2022/03/07 09:08:27;;;;;;;5.15;1.38;;;16.10;78.90;;;;;;5030925;28;20132;-61
2022/03/07 09:10:53;;;;;;;7.95;1.52;;;15.80;78.40;;;;;;5031724;28;20038;-61
2022/03/07 09:13:19;;;;;;;5.32;1.90;;;16.10;78.50;;;;;;5031297;28;20049;-61
2022/03/07 09:15:47;;;;;;;5.00;1.63;;;16.10;78.60;;;;;;5014531;28;20049;-60
2022/03/07 09:18:13;;;;;;;5.68;1.30;;;;;;;;;;5033378;28;20052;-61
2022/03/07 09:20:39;;;;;;;8.85;1.65;;;16.00;74.90;;;;;;5017192;28;20124;-61
2022/03/07 09:23:05;;;;;;;4.50;1.70;;;;;;;;;;5019893;28;20479;-63
2022/03/07 09:25:31;;;;;;;5.55;1.70;;;16.00;78.80;;;;;;5035651;28;20098;-61
2022/03/07 09:27:57;;;;;;;4.65;1.90;;;16.20;78.90;;;;;;5036727;28;20041;-61
2022/03/07 09:30:23;;;;;;;3.75;1.60;;;16.00;78.80;;;;;;5033338;28;20540;-61
2022/03/07 09:32:49;;;;;;;6.78;1.67;;;16.00;79.10;;;;;;5035230;28;20127;-62
2022/03/07 09:35:15;;;;;;;4.13;1.50;;;15.60;78.70;;;;;;5034951;28;20159;-61
2022/03/07 09:37:41;;;;;;;5.63;1.60;;;15.70;78.80;;;;;;5035966;28;20491;-60
2022/03/07 09:40:08;;;;;;;6.90;1.98;;;15.90;78.80;;;;;;5024250;28;20048;-60
2022/03/07 09:42:33;;;;;;;6.10;1.60;;;15.90;78.80;;;;;;5036106;28;20047;-65
2022/03/07 09:44:59;;;;;;;4.38;1.88;;;15.80;78.80;;;;;;5032911;28;20553;-62
2022/03/07 09:47:25;;;;;;;7.85;1.50;;;15.80;79.10;;;;;;5036150;28;20041;-63
2022/03/07 09:49:51;;;;;;;4.80;1.60;;;15.70;77.30;;;;;;5036262;28;20136;-61
2022/03/07 09:52:17;;;;;;;4.35;1.73;;;15.90;79.30;;;;;;5033759;28;20112;-61
2022/03/07 09:54:43;;;;;;;5.35;1.45;;;;;;;;;;5033329;28;20388;-62
2022/03/07 09:57:09;;;;;;;8.25;1.90;;;15.70;79.30;;;;;;5029074;28;20038;-61
2022/03/07 09:59:35;;;;;;;4.15;1.50;;;15.70;79.20;;;;;;5032319;28;20128;-63
2022/03/07 10:02:05;;;;;;;9.00;1.63;;;15.50;79.50;;;;;;5027252;28;20522;-62
2022/03/07 10:04:35;;;;;;;4.45;1.35;;;15.70;79.40;;;;;;5035181;28;20095;-62
2022/03/07 10:07:02;;;;;;;5.18;1.52;;;15.80;79.50;;;;;;4996099;28;20053;-61
2022/03/07 10:09:28;;;;;;;7.13;2.05;;;15.80;79.40;;;;;;5033971;28;20555;-63
2022/03/07 10:11:56;;;;;;;6.55;1.48;;;15.90;76.70;;;;;;5028752;28;20506;-61
2022/03/07 10:14:42;;;;;;;9.50;2.40;;;15.80;75.80;;;;;;5035538;28;20049;-61
2022/03/07 10:17:26;;;;;;;8.32;2.00;;;15.80;75.70;;;;;;5032149;28;20111;-61
2022/03/07 10:19:54;;;;;;;6.85;2.20;;;15.70;79.50;;;;;;5035848;28;20045;-61
2022/03/07 10:22:22;;;;;;;9.70;2.00;;;15.70;76.70;;;;;;5038607;28;20455;-65
2022/03/07 10:24:56;;;;;;;10.95;2.50;;;15.70;79.60;;;;;;5034334;28;20037;-64
2022/03/07 10:27:29;;;;;;;7.55;1.98;;;15.70;75.40;;;;;;5032995;28;20060;-64
2022/03/07 10:29:54;;;;;;;;;;;15.60;77.10;;;;;;5032042;28;20507;-64
2022/03/07 10:32:20;;;;;;;4.78;1.60;;;15.80;79.80;;;;;;5034309;28;19975;-65
2022/03/07 10:34:46;;;;;;;8.20;1.88;;;15.70;77.30;;;;;;5033715;28;20093;-61
2022/03/07 10:37:12;;;;;;;5.35;1.90;;;15.60;79.80;;;;;;5035984;28;20124;-61
2022/03/07 10:39:38;;;;;;;8.20;2.03;;;;;;;;;;5034035;28;20033;-61
2022/03/07 10:42:04;;;;;;;7.07;1.75;;;15.60;79.80;;;;;;5033743;28;20525;-62
2022/03/07 10:44:32;;;;;;;5.97;1.92;;;15.70;79.80;;;;;;5034180;28;20045;-61
2022/03/07 10:47:19;;;;;;;4.53;1.58;;;15.40;75.70;;;;;;5026695;28;20053;-61
2022/03/07 10:49:56;;;;;;;7.05;2.00;;;15.80;80.10;;;;;;5023548;28;20056;-61
2022/03/07 10:52:22;;;;;;;5.80;2.03;;;;;;;;;;5034276;28;20178;-63
2022/03/07 10:54:49;;;;;;;7.15;2.08;;;15.60;79.70;;;;;;5033345;28;20048;-61
2022/03/07 10:57:16;;;;;;;6.35;1.75;;;15.50;79.60;;;;;;5034810;28;20120;-61
2022/03/07 10:59:42;;;;;;;7.30;1.98;;;15.60;79.60;;;;;;5034283;28;20056;-62
2022/03/07 11:02:14;;;;;;;6.47;1.90;;;15.60;76.80;;;;;;5015908;28;20045;-61
2022/03/07 11:04:40;;;;;;;6.28;1.90;;;15.40;76.50;;;;;;5021053;28;20049;-63
2022/03/07 11:07:08;;;;;;;5.18;2.05;;;15.70;79.40;;;;;;5034432;28;20501;-61
2022/03/07 11:09:34;;;;;;;5.97;1.83;;;;;;;;;;5033893;28;20045;-62
2022/03/07 11:12:00;;;;;;;7.00;1.52;;;15.70;79.40;;;;;;5033777;28;20049;-61
2022/03/07 11:14:27;;;;;;;4.85;1.70;;;15.60;76.70;;;;;;5033192;28;20046;-61
2022/03/07 11:16:56;;;;;;;4.05;1.50;;;15.60;76.30;;;;;;5034236;28;20085;-61
2022/03/07 11:19:23;;;;;;;4.50;1.77;;;15.60;76.10;;;;;;5034375;28;20045;-61
2022/03/07 11:21:51;;;;;;;5.10;1.80;;;16.00;79.20;;;;;;5028550;28;20053;-60
2022/03/07 11:24:21;;;;;;;4.00;1.50;;;15.50;78.80;;;;;;5032868;28;20088;-61
2022/03/07 11:26:47;;;;;;;4.50;1.70;;;15.70;78.90;;;;;;5032446;28;20049;-61
2022/03/07 11:29:13;;;;;;;5.05;1.88;;;15.90;79.00;;;;;;5034058;28;20049;-61
2022/03/07 11:31:39;;;;;;;13.35;1.92;;;15.90;78.60;;;;;;5033880;28;20037;-63
2022/03/07 11:34:07;;;;;;;9.98;2.10;;;15.50;78.40;;;;;;5033703;28;20076;-63
2022/03/07 11:36:36;;;;;;;5.18;1.50;;;16.00;78.50;;;;;;5033013;28;20266;-62
2022/03/07 11:39:02;;;;;;;9.93;1.80;;;16.10;78.20;;;;;;5033352;28;20042;-65
2022/03/07 11:41:30;;;;;;;6.70;1.73;;;16.10;78.30;;;;;;5033892;28;20558;-61
2022/03/07 11:44:00;;;;;;;7.07;1.90;;;;;;;;;;5032787;28;20057;-61
2022/03/07 11:46:44;;;;;;;4.55;1.95;;;16.10;78.10;;;;;;5032450;28;20203;-61
2022/03/07 11:49:11;;;;;;;5.70;1.65;;;16.10;78.10;;;;;;5033884;28;20445;-61
2022/03/07 11:51:38;;;;;;;5.45;1.38;;;;;;;;;;5033350;28;20116;-63
2022/03/07 11:54:05;;;;;;;3.78;1.42;;;16.00;77.80;;;;;;5022199;28;20198;-61
2022/03/07 11:56:35;;;;;;;3.17;1.38;;;16.30;77.10;;;;;;5034018;28;20402;-62
2022/03/07 11:59:03;;;;;;;9.50;1.90;;;16.00;77.60;;;;;;5033681;28;20054;-61
2022/03/07 12:01:31;;;;;;;4.88;1.63;;;15.90;77.50;;;;;;5033971;28;20403;-61
2022/03/07 12:04:16;;;;;;;3.47;1.55;;;15.90;77.20;;;;;;5033795;28;20041;-61
2022/03/07 12:06:52;;;;;;;4.20;1.40;;;16.10;77.40;;;;;;5033531;28;20048;-64
2022/03/07 12:09:24;;;;;;;3.08;1.63;;;;;;;;;;5033887;28;20111;-62
2022/03/07 12:12:03;;;;;;;3.63;1.63;;;16.40;77.20;;;;;;5032825;28;20120;-64
2022/03/07 12:14:47;;;;;;;3.30;1.60;;;16.30;74.10;;;;;;5033067;28;20053;-64
2022/03/07 12:17:15;;;;;;;4.72;1.75;;;16.40;77.00;;;;;;5012629;28;20042;-64
2022/03/07 12:19:42;;;;;;;3.95;1.70;;;16.30;76.90;;;;;;5012669;28;20196;-61
2022/03/07 12:22:14;;;;;;;4.63;1.85;;;16.20;76.70;;;;;;4996335;28;20108;-61
2022/03/07 12:24:41;;;;;;;5.18;1.83;;;15.90;76.80;;;;;;4996365;28;20076;-66
2022/03/07 12:27:07;;;;;;;4.88;1.70;;;15.90;76.80;;;;;;5030008;28;20049;-62
2022/03/07 12:29:33;;;;;;;12.50;2.22;;;16.10;76.90;;;;;;5035782;28;20049;-64
2022/03/07 12:31:59;;;;;;;4.57;1.77;;;;;;;;;;5012533;28;20046;-63
2022/03/07 12:34:30;;;;;;;4.70;1.73;;;16.00;77.10;;;;;;5013258;28;20062;-62
2022/03/07 12:37:03;;;;;;;4.55;1.80;;;16.20;76.90;;;;;;5018035;28;20524;-64
2022/03/07 12:39:42;;;;;;;5.03;1.73;;;15.80;76.70;;;;;;5026599;28;20059;-61
2022/03/07 12:42:08;;;;;;;3.65;1.67;;;16.00;76.90;;;;;;5033839;28;20045;-65
2022/03/07 12:44:35;;;;;;;4.75;1.65;;;16.00;77.00;;;;;;5033511;28;20048;-62
2022/03/07 12:47:01;;;;;;;5.55;1.60;;;15.90;76.70;;;;;;5030983;28;20045;-63
2022/03/07 12:49:26;;;;;;;3.28;1.70;;;16.10;76.70;;;;;;5032039;28;20045;-64
2022/03/07 12:51:52;;;;;;;3.47;1.40;;;15.80;76.70;;;;;;5030082;28;20487;-66
2022/03/07 12:54:29;;;;;;;7.63;1.80;;;16.20;74.00;;;;;;5036064;28;20124;-64
2022/03/07 12:56:55;;;;;;;18.80;2.03;;;16.10;74.00;;;;;;5036336;28;20048;-64
2022/03/07 12:59:25;;;;;;;6.15;1.80;;;16.00;76.50;;;;;;5018701;28;20045;-64
2022/03/07 13:01:51;;;;;;;5.05;1.67;;;16.30;77.10;;;;;;5026814;28;20088;-64
2022/03/07 13:04:18;;;;;;;9.60;2.10;;;16.20;76.60;;;;;;5017534;28;20491;-64
2022/03/07 13:06:47;;;;;;;5.05;1.58;;;16.00;76.50;;;;;;5017385;28;20044;-64
2022/03/07 13:09:13;;;;;;;8.38;1.88;;;16.40;76.80;;;;;;5027938;28;20395;-64
2022/03/07 13:11:41;;;;;;;4.90;1.60;;;16.00;76.60;;;;;;5052107;28;20041;-65
2022/03/07 13:14:07;;;;;;;4.00;1.50;;;16.20;76.70;;;;;;5037010;28;20042;-65
2022/03/07 13:16:36;;;;;;;4.75;1.50;;;15.90;76.60;;;;;;5036854;28;20040;-65
2022/03/07 13:19:11;;;;;;;3.40;1.95;;;16.20;76.70;;;;;;5035091;28;20116;-61
2022/03/07 13:21:44;;;;;;;7.57;1.42;;;16.30;76.80;;;;;;5035327;28;20049;-62
2022/03/07 13:24:10;;;;;;;;;;;16.00;74.00;;;;;;5037292;28;20053;-61